sensor_id;sensor_type;location;lat;lon;timestamp;P1;durP1;ratioP1;P2;durP2;ratioP2
78718;SDS011;68046;53.334;9.538;2023-08-30T00:00:15;4.00;;;2.60;;
78718;SDS011;68046;53.334;9.538;2023-08-30T00:02:47;5.50;;;3.03;;
78718;SDS011;68046;53.334;9.538;2023-08-30T00:05:17;4.63;;;2.30;;
78718;SDS011;68046;53.334;9.538;2023-08-30T00:07:47;5.13;;;3.13;;
78718;SDS011;68046;53.334;9.538;2023-08-30T00:10:17;4.57;;;3.45;;
78718;SDS011;68046;53.334;9.538;2023-08-30T00:12:49;5.35;;;2.60;;
78718;SDS011;68046;53.334;9.538;2023-08-30T00:15:19;5.10;;;3.17;;
78718;SDS011;68046;53.334;9.538;2023-08-30T00:17:49;3.88;;;2.97;;
78718;SDS011;68046;53.334;9.538;2023-08-30T00:20:20;4.53;;;3.20;;
78718;SDS011;68046;53.334;9.538;2023-08-30T00:22:50;4.85;;;2.88;;
78718;SDS011;68046;53.334;9.538;2023-08-30T00:25:19;5.20;;;3.08;;
78718;SDS011;68046;53.334;9.538;2023-08-30T00:27:52;4.30;;;3.05;;
78718;SDS011;68046;53.334;9.538;2023-08-30T00:30:22;5.28;;;3.47;;
78718;SDS011;68046;53.334;9.538;2023-08-30T00:32:52;5.60;;;3.15;;
78718;SDS011;68046;53.334;9.538;2023-08-30T00:35:21;4.00;;;2.97;;
78718;SDS011;68046;53.334;9.538;2023-08-30T00:37:51;5.32;;;3.35;;
78718;SDS011;68046;53.334;9.538;2023-08-30T00:40:22;4.63;;;3.85;;
78718;SDS011;68046;53.334;9.538;2023-08-30T00:42:56;6.30;;;3.80;;
78718;SDS011;68046;53.334;9.538;2023-08-30T00:45:25;4.68;;;3.45;;
78718;SDS011;68046;53.334;9.538;2023-08-30T00:47:55;6.38;;;2.92;;
78718;SDS011;68046;53.334;9.538;2023-08-30T00:50:25;4.93;;;3.33;;
78718;SDS011;68046;53.334;9.538;2023-08-30T00:52:55;7.13;;;4.35;;
78718;SDS011;68046;53.334;9.538;2023-08-30T00:55:25;8.82;;;4.10;;
78718;SDS011;68046;53.334;9.538;2023-08-30T00:57:57;6.45;;;4.00;;
78718;SDS011;68046;53.334;9.538;2023-08-30T01:00:29;5.63;;;3.65;;
78718;SDS011;68046;53.334;9.538;2023-08-30T01:02:59;5.47;;;4.15;;
78718;SDS011;68046;53.334;9.538;2023-08-30T01:05:28;6.43;;;4.13;;
78718;SDS011;68046;53.334;9.538;2023-08-30T01:07:58;7.13;;;5.13;;
78718;SDS011;68046;53.334;9.538;2023-08-30T01:10:31;5.75;;;3.30;;
78718;SDS011;68046;53.334;9.538;2023-08-30T01:13:12;6.15;;;4.10;;
78718;SDS011;68046;53.334;9.538;2023-08-30T01:15:46;9.82;;;3.97;;
78718;SDS011;68046;53.334;9.538;2023-08-30T01:18:17;6.68;;;4.15;;
78718;SDS011;68046;53.334;9.538;2023-08-30T01:20:48;5.03;;;3.50;;
78718;SDS011;68046;53.334;9.538;2023-08-30T01:23:21;7.15;;;4.53;;
78718;SDS011;68046;53.334;9.538;2023-08-30T01:25:58;6.07;;;3.67;;
78718;SDS011;68046;53.334;9.538;2023-08-30T01:28:35;6.43;;;4.38;;
78718;SDS011;68046;53.334;9.538;2023-08-30T01:31:06;5.28;;;3.70;;
78718;SDS011;68046;53.334;9.538;2023-08-30T01:33:38;7.47;;;4.40;;
78718;SDS011;68046;53.334;9.538;2023-08-30T01:36:09;8.98;;;4.38;;
78718;SDS011;68046;53.334;9.538;2023-08-30T01:38:39;7.40;;;4.68;;
78718;SDS011;68046;53.334;9.538;2023-08-30T01:41:09;6.07;;;3.92;;
78718;SDS011;68046;53.334;9.538;2023-08-30T01:43:42;5.90;;;4.65;;
78718;SDS011;68046;53.334;9.538;2023-08-30T01:46:13;6.13;;;4.20;;
78718;SDS011;68046;53.334;9.538;2023-08-30T01:48:43;5.60;;;3.95;;
78718;SDS011;68046;53.334;9.538;2023-08-30T01:51:14;6.07;;;4.13;;
78718;SDS011;68046;53.334;9.538;2023-08-30T01:53:45;8.75;;;4.93;;
78718;SDS011;68046;53.334;9.538;2023-08-30T01:56:15;5.95;;;4.10;;
78718;SDS011;68046;53.334;9.538;2023-08-30T01:58:48;7.70;;;4.05;;
78718;SDS011;68046;53.334;9.538;2023-08-30T02:01:18;5.93;;;4.45;;
78718;SDS011;68046;53.334;9.538;2023-08-30T02:03:48;8.00;;;4.18;;
78718;SDS011;68046;53.334;9.538;2023-08-30T02:06:19;6.00;;;4.40;;
78718;SDS011;68046;53.334;9.538;2023-08-30T02:08:53;6.07;;;4.20;;
78718;SDS011;68046;53.334;9.538;2023-08-30T02:11:26;7.57;;;4.07;;
78718;SDS011;68046;53.334;9.538;2023-08-30T02:13:59;5.43;;;4.40;;
78718;SDS011;68046;53.334;9.538;2023-08-30T02:16:29;8.48;;;4.72;;
78718;SDS011;68046;53.334;9.538;2023-08-30T02:19:00;9.50;;;4.95;;
78718;SDS011;68046;53.334;9.538;2023-08-30T02:21:30;6.55;;;4.47;;
78718;SDS011;68046;53.334;9.538;2023-08-30T02:24:00;7.20;;;4.95;;
78718;SDS011;68046;53.334;9.538;2023-08-30T02:26:30;10.38;;;4.60;;
78718;SDS011;68046;53.334;9.538;2023-08-30T02:29:02;7.93;;;5.07;;
78718;SDS011;68046;53.334;9.538;2023-08-30T02:31:32;7.40;;;5.03;;
78718;SDS011;68046;53.334;9.538;2023-08-30T02:34:02;7.25;;;4.43;;
78718;SDS011;68046;53.334;9.538;2023-08-30T02:36:32;6.88;;;4.93;;
78718;SDS011;68046;53.334;9.538;2023-08-30T02:39:02;8.20;;;4.45;;
78718;SDS011;68046;53.334;9.538;2023-08-30T02:44:05;6.30;;;4.57;;
78718;SDS011;68046;53.334;9.538;2023-08-30T02:46:35;10.52;;;4.85;;
78718;SDS011;68046;53.334;9.538;2023-08-30T02:49:06;8.50;;;5.15;;
78718;SDS011;68046;53.334;9.538;2023-08-30T02:51:37;8.02;;;5.60;;
78718;SDS011;68046;53.334;9.538;2023-08-30T02:54:08;5.85;;;4.05;;
78718;SDS011;68046;53.334;9.538;2023-08-30T02:56:39;7.38;;;5.07;;
78718;SDS011;68046;53.334;9.538;2023-08-30T02:59:12;7.38;;;5.43;;
78718;SDS011;68046;53.334;9.538;2023-08-30T03:01:43;10.13;;;4.68;;
78718;SDS011;68046;53.334;9.538;2023-08-30T03:04:16;5.90;;;4.70;;
78718;SDS011;68046;53.334;9.538;2023-08-30T03:06:46;9.70;;;5.32;;
78718;SDS011;68046;53.334;9.538;2023-08-30T03:09:15;7.47;;;5.40;;
78718;SDS011;68046;53.334;9.538;2023-08-30T03:11:45;9.00;;;4.90;;
78718;SDS011;68046;53.334;9.538;2023-08-30T03:14:18;9.85;;;4.78;;
78718;SDS011;68046;53.334;9.538;2023-08-30T03:16:49;9.90;;;4.97;;
78718;SDS011;68046;53.334;9.538;2023-08-30T03:19:19;7.10;;;5.22;;
78718;SDS011;68046;53.334;9.538;2023-08-30T03:21:49;6.88;;;4.72;;
78718;SDS011;68046;53.334;9.538;2023-08-30T03:24:19;9.27;;;5.53;;
78718;SDS011;68046;53.334;9.538;2023-08-30T03:26:49;9.60;;;5.93;;
78718;SDS011;68046;53.334;9.538;2023-08-30T03:29:22;7.80;;;5.68;;
78718;SDS011;68046;53.334;9.538;2023-08-30T03:31:51;11.80;;;5.63;;
78718;SDS011;68046;53.334;9.538;2023-08-30T03:34:21;7.50;;;4.35;;
78718;SDS011;68046;53.334;9.538;2023-08-30T03:36:51;8.93;;;5.05;;
78718;SDS011;68046;53.334;9.538;2023-08-30T03:39:21;7.75;;;5.45;;
78718;SDS011;68046;53.334;9.538;2023-08-30T03:41:52;8.77;;;5.97;;
78718;SDS011;68046;53.334;9.538;2023-08-30T03:44:25;11.07;;;7.65;;
78718;SDS011;68046;53.334;9.538;2023-08-30T03:46:55;9.55;;;6.30;;
78718;SDS011;68046;53.334;9.538;2023-08-30T03:49:25;8.82;;;5.97;;
78718;SDS011;68046;53.334;9.538;2023-08-30T03:51:55;8.70;;;5.00;;
78718;SDS011;68046;53.334;9.538;2023-08-30T03:54:25;11.77;;;6.65;;
78718;SDS011;68046;53.334;9.538;2023-08-30T03:56:55;9.55;;;6.15;;
78718;SDS011;68046;53.334;9.538;2023-08-30T03:59:27;9.95;;;6.38;;
78718;SDS011;68046;53.334;9.538;2023-08-30T04:01:57;10.30;;;7.10;;
78718;SDS011;68046;53.334;9.538;2023-08-30T04:04:27;16.60;;;9.18;;
78718;SDS011;68046;53.334;9.538;2023-08-30T04:06:57;17.33;;;9.65;;
78718;SDS011;68046;53.334;9.538;2023-08-30T04:09:27;15.05;;;10.60;;
78718;SDS011;68046;53.334;9.538;2023-08-30T04:11:57;15.38;;;9.48;;
78718;SDS011;68046;53.334;9.538;2023-08-30T04:14:30;13.90;;;8.95;;
78718;SDS011;68046;53.334;9.538;2023-08-30T04:17:01;15.90;;;10.68;;
78718;SDS011;68046;53.334;9.538;2023-08-30T04:19:33;15.52;;;9.75;;
78718;SDS011;68046;53.334;9.538;2023-08-30T04:22:07;16.80;;;9.13;;
78718;SDS011;68046;53.334;9.538;2023-08-30T04:24:37;15.32;;;10.20;;
78718;SDS011;68046;53.334;9.538;2023-08-30T04:27:08;16.58;;;10.63;;
78718;SDS011;68046;53.334;9.538;2023-08-30T04:29:40;18.23;;;10.30;;
78718;SDS011;68046;53.334;9.538;2023-08-30T04:32:11;15.10;;;9.80;;
78718;SDS011;68046;53.334;9.538;2023-08-30T04:34:41;16.95;;;10.15;;
78718;SDS011;68046;53.334;9.538;2023-08-30T04:37:11;16.42;;;10.52;;
78718;SDS011;68046;53.334;9.538;2023-08-30T04:39:41;15.52;;;9.55;;
78718;SDS011;68046;53.334;9.538;2023-08-30T04:42:11;15.85;;;10.07;;
78718;SDS011;68046;53.334;9.538;2023-08-30T04:44:43;14.82;;;10.15;;
78718;SDS011;68046;53.334;9.538;2023-08-30T04:47:13;18.27;;;10.65;;
78718;SDS011;68046;53.334;9.538;2023-08-30T04:49:44;14.02;;;9.77;;
78718;SDS011;68046;53.334;9.538;2023-08-30T04:52:14;18.05;;;10.02;;
78718;SDS011;68046;53.334;9.538;2023-08-30T04:54:43;14.85;;;9.25;;
78718;SDS011;68046;53.334;9.538;2023-08-30T04:57:15;14.80;;;9.43;;
78718;SDS011;68046;53.334;9.538;2023-08-30T04:59:48;16.40;;;10.48;;
78718;SDS011;68046;53.334;9.538;2023-08-30T05:02:18;14.98;;;9.27;;
78718;SDS011;68046;53.334;9.538;2023-08-30T05:04:54;15.48;;;9.38;;
78718;SDS011;68046;53.334;9.538;2023-08-30T05:07:25;15.63;;;9.45;;
78718;SDS011;68046;53.334;9.538;2023-08-30T05:09:55;17.67;;;10.20;;
78718;SDS011;68046;53.334;9.538;2023-08-30T05:12:25;15.18;;;10.68;;
78718;SDS011;68046;53.334;9.538;2023-08-30T05:14:58;16.27;;;10.30;;
78718;SDS011;68046;53.334;9.538;2023-08-30T05:17:28;17.88;;;10.32;;
78718;SDS011;68046;53.334;9.538;2023-08-30T05:19:58;16.33;;;10.50;;
78718;SDS011;68046;53.334;9.538;2023-08-30T05:22:29;13.38;;;8.55;;
78718;SDS011;68046;53.334;9.538;2023-08-30T05:24:59;14.48;;;9.23;;
78718;SDS011;68046;53.334;9.538;2023-08-30T05:27:29;16.27;;;10.02;;
78718;SDS011;68046;53.334;9.538;2023-08-30T05:30:02;14.68;;;10.10;;
78718;SDS011;68046;53.334;9.538;2023-08-30T05:32:33;15.32;;;8.85;;
78718;SDS011;68046;53.334;9.538;2023-08-30T05:35:40;16.30;;;10.07;;
78718;SDS011;68046;53.334;9.538;2023-08-30T05:38:24;17.35;;;10.88;;
78718;SDS011;68046;53.334;9.538;2023-08-30T05:41:01;17.35;;;11.45;;
78718;SDS011;68046;53.334;9.538;2023-08-30T05:43:31;18.10;;;10.07;;
78718;SDS011;68046;53.334;9.538;2023-08-30T05:46:07;16.58;;;10.93;;
78718;SDS011;68046;53.334;9.538;2023-08-30T05:48:41;18.50;;;12.18;;
78718;SDS011;68046;53.334;9.538;2023-08-30T05:51:11;18.05;;;9.98;;
78718;SDS011;68046;53.334;9.538;2023-08-30T05:53:41;18.13;;;11.90;;
78718;SDS011;68046;53.334;9.538;2023-08-30T05:56:10;19.73;;;12.82;;
78718;SDS011;68046;53.334;9.538;2023-08-30T05:58:40;20.08;;;11.38;;
78718;SDS011;68046;53.334;9.538;2023-08-30T06:01:13;16.17;;;11.25;;
78718;SDS011;68046;53.334;9.538;2023-08-30T06:03:43;15.23;;;9.38;;
78718;SDS011;68046;53.334;9.538;2023-08-30T06:06:13;17.73;;;10.70;;
78718;SDS011;68046;53.334;9.538;2023-08-30T06:08:44;18.90;;;12.20;;
78718;SDS011;68046;53.334;9.538;2023-08-30T06:11:14;21.73;;;12.07;;
78718;SDS011;68046;53.334;9.538;2023-08-30T06:13:44;15.98;;;10.57;;
78718;SDS011;68046;53.334;9.538;2023-08-30T06:16:17;18.58;;;11.32;;
78718;SDS011;68046;53.334;9.538;2023-08-30T06:18:46;19.33;;;12.98;;
78718;SDS011;68046;53.334;9.538;2023-08-30T06:21:16;16.73;;;12.00;;
78718;SDS011;68046;53.334;9.538;2023-08-30T06:23:46;21.15;;;12.65;;
78718;SDS011;68046;53.334;9.538;2023-08-30T06:28:46;20.08;;;11.55;;
78718;SDS011;68046;53.334;9.538;2023-08-30T06:31:32;23.13;;;13.10;;
78718;SDS011;68046;53.334;9.538;2023-08-30T06:34:02;18.48;;;12.02;;
78718;SDS011;68046;53.334;9.538;2023-08-30T06:36:32;20.02;;;11.95;;
78718;SDS011;68046;53.334;9.538;2023-08-30T06:39:02;19.20;;;12.05;;
78718;SDS011;68046;53.334;9.538;2023-08-30T06:41:32;19.52;;;13.05;;
78718;SDS011;68046;53.334;9.538;2023-08-30T06:44:02;26.27;;;13.20;;
78718;SDS011;68046;53.334;9.538;2023-08-30T06:46:34;21.92;;;14.05;;
78718;SDS011;68046;53.334;9.538;2023-08-30T06:49:04;22.38;;;14.32;;
78718;SDS011;68046;53.334;9.538;2023-08-30T06:51:36;20.45;;;14.18;;
78718;SDS011;68046;53.334;9.538;2023-08-30T06:54:05;21.88;;;14.40;;
78718;SDS011;68046;53.334;9.538;2023-08-30T06:56:35;23.80;;;15.88;;
78718;SDS011;68046;53.334;9.538;2023-08-30T06:59:05;22.40;;;13.65;;
78718;SDS011;68046;53.334;9.538;2023-08-30T07:01:37;25.25;;;14.73;;
78718;SDS011;68046;53.334;9.538;2023-08-30T07:04:07;33.28;;;15.73;;
78718;SDS011;68046;53.334;9.538;2023-08-30T07:06:37;26.67;;;14.20;;
78718;SDS011;68046;53.334;9.538;2023-08-30T07:09:07;26.30;;;15.20;;
78718;SDS011;68046;53.334;9.538;2023-08-30T07:11:37;25.33;;;15.20;;
78718;SDS011;68046;53.334;9.538;2023-08-30T07:14:07;23.90;;;15.63;;
78718;SDS011;68046;53.334;9.538;2023-08-30T07:16:40;22.50;;;15.02;;
78718;SDS011;68046;53.334;9.538;2023-08-30T07:19:10;30.27;;;17.77;;
78718;SDS011;68046;53.334;9.538;2023-08-30T07:21:40;25.55;;;17.17;;
78718;SDS011;68046;53.334;9.538;2023-08-30T07:24:10;25.08;;;16.35;;
78718;SDS011;68046;53.334;9.538;2023-08-30T07:26:40;30.02;;;16.80;;
78718;SDS011;68046;53.334;9.538;2023-08-30T07:29:10;27.17;;;17.08;;
78718;SDS011;68046;53.334;9.538;2023-08-30T07:31:42;26.38;;;16.92;;
78718;SDS011;68046;53.334;9.538;2023-08-30T07:34:12;26.05;;;16.95;;
78718;SDS011;68046;53.334;9.538;2023-08-30T07:36:42;28.77;;;17.02;;
78718;SDS011;68046;53.334;9.538;2023-08-30T07:39:14;24.88;;;14.32;;
78718;SDS011;68046;53.334;9.538;2023-08-30T07:41:43;25.08;;;15.98;;
78718;SDS011;68046;53.334;9.538;2023-08-30T07:44:13;25.58;;;17.85;;
78718;SDS011;68046;53.334;9.538;2023-08-30T07:46:46;27.30;;;16.98;;
78718;SDS011;68046;53.334;9.538;2023-08-30T07:49:15;26.08;;;16.70;;
78718;SDS011;68046;53.334;9.538;2023-08-30T07:51:45;24.83;;;17.63;;
78718;SDS011;68046;53.334;9.538;2023-08-30T07:54:15;26.20;;;16.52;;
78718;SDS011;68046;53.334;9.538;2023-08-30T07:56:45;25.38;;;14.98;;
78718;SDS011;68046;53.334;9.538;2023-08-30T07:59:15;27.58;;;15.90;;
78718;SDS011;68046;53.334;9.538;2023-08-30T08:01:47;24.20;;;15.10;;
78718;SDS011;68046;53.334;9.538;2023-08-30T08:04:18;24.02;;;14.70;;
78718;SDS011;68046;53.334;9.538;2023-08-30T08:06:48;27.15;;;15.50;;
78718;SDS011;68046;53.334;9.538;2023-08-30T08:09:22;21.30;;;12.50;;
78718;SDS011;68046;53.334;9.538;2023-08-30T08:11:52;22.85;;;14.73;;
78718;SDS011;68046;53.334;9.538;2023-08-30T08:14:22;63.08;;;15.85;;
78718;SDS011;68046;53.334;9.538;2023-08-30T08:19:25;24.45;;;13.07;;
78718;SDS011;68046;53.334;9.538;2023-08-30T08:21:55;20.08;;;11.90;;
78718;SDS011;68046;53.334;9.538;2023-08-30T08:24:25;21.00;;;12.45;;
78718;SDS011;68046;53.334;9.538;2023-08-30T08:26:55;22.55;;;12.77;;
78718;SDS011;68046;53.334;9.538;2023-08-30T08:29:26;19.77;;;13.73;;
78718;SDS011;68046;53.334;9.538;2023-08-30T08:31:58;19.23;;;13.02;;
78718;SDS011;68046;53.334;9.538;2023-08-30T08:34:29;19.83;;;12.02;;
78718;SDS011;68046;53.334;9.538;2023-08-30T08:36:59;21.92;;;14.10;;
78718;SDS011;68046;53.334;9.538;2023-08-30T08:39:30;20.10;;;12.73;;
78718;SDS011;68046;53.334;9.538;2023-08-30T08:42:00;20.23;;;12.60;;
78718;SDS011;68046;53.334;9.538;2023-08-30T08:44:31;19.58;;;12.75;;
78718;SDS011;68046;53.334;9.538;2023-08-30T08:47:04;20.90;;;12.95;;
78718;SDS011;68046;53.334;9.538;2023-08-30T08:49:34;16.63;;;12.70;;
78718;SDS011;68046;53.334;9.538;2023-08-30T08:52:04;16.48;;;12.13;;
78718;SDS011;68046;53.334;9.538;2023-08-30T08:54:49;19.70;;;12.80;;
78718;SDS011;68046;53.334;9.538;2023-08-30T08:57:19;19.80;;;11.80;;
78718;SDS011;68046;53.334;9.538;2023-08-30T08:59:50;19.38;;;11.68;;
78718;SDS011;68046;53.334;9.538;2023-08-30T09:05:05;17.00;;;10.50;;
78718;SDS011;68046;53.334;9.538;2023-08-30T09:07:35;15.20;;;9.55;;
78718;SDS011;68046;53.334;9.538;2023-08-30T09:10:05;14.55;;;8.88;;
78718;SDS011;68046;53.334;9.538;2023-08-30T09:12:36;13.75;;;9.20;;
78718;SDS011;68046;53.334;9.538;2023-08-30T09:15:06;15.25;;;9.80;;
78718;SDS011;68046;53.334;9.538;2023-08-30T09:20:09;13.57;;;8.85;;
78718;SDS011;68046;53.334;9.538;2023-08-30T09:22:41;15.82;;;10.02;;
78718;SDS011;68046;53.334;9.538;2023-08-30T09:25:22;14.93;;;8.82;;
78718;SDS011;68046;53.334;9.538;2023-08-30T09:27:56;16.23;;;9.30;;
78718;SDS011;68046;53.334;9.538;2023-08-30T09:30:27;15.02;;;9.13;;
78718;SDS011;68046;53.334;9.538;2023-08-30T09:33:03;14.60;;;8.15;;
78718;SDS011;68046;53.334;9.538;2023-08-30T09:35:39;15.90;;;8.35;;
78718;SDS011;68046;53.334;9.538;2023-08-30T09:38:16;14.25;;;8.23;;
78718;SDS011;68046;53.334;9.538;2023-08-30T09:40:47;13.82;;;8.45;;
78718;SDS011;68046;53.334;9.538;2023-08-30T09:43:18;10.68;;;6.75;;
78718;SDS011;68046;53.334;9.538;2023-08-30T09:45:49;18.00;;;8.32;;
78718;SDS011;68046;53.334;9.538;2023-08-30T09:48:27;10.25;;;5.80;;
78718;SDS011;68046;53.334;9.538;2023-08-30T09:50:57;10.55;;;6.32;;
78718;SDS011;68046;53.334;9.538;2023-08-30T09:53:28;12.50;;;7.82;;
78718;SDS011;68046;53.334;9.538;2023-08-30T09:55:59;12.65;;;8.48;;
78718;SDS011;68046;53.334;9.538;2023-08-30T09:58:29;17.42;;;8.10;;
78718;SDS011;68046;53.334;9.538;2023-08-30T10:00:59;16.30;;;7.97;;
78718;SDS011;68046;53.334;9.538;2023-08-30T10:03:32;14.38;;;7.47;;
78718;SDS011;68046;53.334;9.538;2023-08-30T10:06:03;11.60;;;7.45;;
78718;SDS011;68046;53.334;9.538;2023-08-30T10:08:34;12.60;;;7.57;;
78718;SDS011;68046;53.334;9.538;2023-08-30T10:11:05;13.40;;;7.55;;
78718;SDS011;68046;53.334;9.538;2023-08-30T10:13:35;15.63;;;7.72;;
78718;SDS011;68046;53.334;9.538;2023-08-30T10:16:06;12.88;;;7.35;;
78718;SDS011;68046;53.334;9.538;2023-08-30T10:18:40;14.90;;;7.60;;
78718;SDS011;68046;53.334;9.538;2023-08-30T10:21:25;17.45;;;8.68;;
78718;SDS011;68046;53.334;9.538;2023-08-30T10:23:59;13.27;;;8.18;;
78718;SDS011;68046;53.334;9.538;2023-08-30T10:26:47;14.38;;;7.32;;
78718;SDS011;68046;53.334;9.538;2023-08-30T10:29:18;12.98;;;7.72;;
78718;SDS011;68046;53.334;9.538;2023-08-30T10:31:50;11.55;;;7.22;;
78718;SDS011;68046;53.334;9.538;2023-08-30T10:34:22;16.30;;;8.90;;
78718;SDS011;68046;53.334;9.538;2023-08-30T10:36:58;18.80;;;8.77;;
78718;SDS011;68046;53.334;9.538;2023-08-30T10:39:36;14.30;;;8.70;;
78718;SDS011;68046;53.334;9.538;2023-08-30T10:42:07;15.20;;;8.25;;
78718;SDS011;68046;53.334;9.538;2023-08-30T10:44:47;17.50;;;9.15;;
78718;SDS011;68046;53.334;9.538;2023-08-30T10:47:22;13.32;;;8.02;;
78718;SDS011;68046;53.334;9.538;2023-08-30T10:49:56;15.82;;;8.80;;
78718;SDS011;68046;53.334;9.538;2023-08-30T10:52:26;16.95;;;8.63;;
78718;SDS011;68046;53.334;9.538;2023-08-30T10:55:04;13.27;;;8.18;;
78718;SDS011;68046;53.334;9.538;2023-08-30T10:57:34;13.20;;;8.80;;
78718;SDS011;68046;53.334;9.538;2023-08-30T11:00:05;13.35;;;9.05;;
78718;SDS011;68046;53.334;9.538;2023-08-30T11:02:37;16.27;;;8.95;;
78718;SDS011;68046;53.334;9.538;2023-08-30T11:05:10;13.68;;;7.78;;
78718;SDS011;68046;53.334;9.538;2023-08-30T11:07:40;14.65;;;7.05;;
78718;SDS011;68046;53.334;9.538;2023-08-30T11:10:09;14.18;;;8.00;;
78718;SDS011;68046;53.334;9.538;2023-08-30T11:15:09;16.60;;;8.60;;
78718;SDS011;68046;53.334;9.538;2023-08-30T11:17:41;15.00;;;8.52;;
78718;SDS011;68046;53.334;9.538;2023-08-30T11:22:47;14.60;;;8.68;;
78718;SDS011;68046;53.334;9.538;2023-08-30T11:25:18;13.93;;;8.05;;
78718;SDS011;68046;53.334;9.538;2023-08-30T11:27:49;14.13;;;7.90;;
78718;SDS011;68046;53.334;9.538;2023-08-30T11:32:48;15.13;;;7.43;;
78718;SDS011;68046;53.334;9.538;2023-08-30T11:35:24;12.27;;;7.88;;
78718;SDS011;68046;53.334;9.538;2023-08-30T11:37:54;14.05;;;7.70;;
78718;SDS011;68046;53.334;9.538;2023-08-30T11:40:24;11.88;;;7.13;;
78718;SDS011;68046;53.334;9.538;2023-08-30T11:42:54;13.15;;;6.53;;
78718;SDS011;68046;53.334;9.538;2023-08-30T11:45:25;12.73;;;8.27;;
78718;SDS011;68046;53.334;9.538;2023-08-30T11:50:27;15.50;;;8.60;;
78718;SDS011;68046;53.334;9.538;2023-08-30T11:53:12;16.42;;;8.90;;
78718;SDS011;68046;53.334;9.538;2023-08-30T11:58:12;15.48;;;8.77;;
78718;SDS011;68046;53.334;9.538;2023-08-30T12:00:42;16.27;;;9.00;;
78718;SDS011;68046;53.334;9.538;2023-08-30T12:03:13;15.95;;;7.57;;
78718;SDS011;68046;53.334;9.538;2023-08-30T12:05:47;12.13;;;6.75;;
78718;SDS011;68046;53.334;9.538;2023-08-30T12:08:18;13.50;;;8.82;;
78718;SDS011;68046;53.334;9.538;2023-08-30T12:10:49;14.80;;;9.30;;
78718;SDS011;68046;53.334;9.538;2023-08-30T12:15:50;16.02;;;8.63;;
78718;SDS011;68046;53.334;9.538;2023-08-30T12:18:20;16.33;;;8.38;;
78718;SDS011;68046;53.334;9.538;2023-08-30T12:21:01;15.23;;;8.68;;
78718;SDS011;68046;53.334;9.538;2023-08-30T12:23:32;14.05;;;8.50;;
78718;SDS011;68046;53.334;9.538;2023-08-30T12:26:03;14.63;;;7.75;;
78718;SDS011;68046;53.334;9.538;2023-08-30T12:28:35;11.70;;;6.85;;
78718;SDS011;68046;53.334;9.538;2023-08-30T12:31:06;12.15;;;8.10;;
78718;SDS011;68046;53.334;9.538;2023-08-30T12:33:36;10.60;;;6.63;;
78718;SDS011;68046;53.334;9.538;2023-08-30T12:36:10;13.18;;;6.88;;
78718;SDS011;68046;53.334;9.538;2023-08-30T12:38:40;10.88;;;6.57;;
78718;SDS011;68046;53.334;9.538;2023-08-30T12:41:10;17.13;;;6.90;;
78718;SDS011;68046;53.334;9.538;2023-08-30T12:43:40;10.48;;;6.82;;
78718;SDS011;68046;53.334;9.538;2023-08-30T12:46:10;10.90;;;7.25;;
78718;SDS011;68046;53.334;9.538;2023-08-30T12:48:40;12.50;;;7.57;;
78718;SDS011;68046;53.334;9.538;2023-08-30T12:51:13;12.77;;;6.53;;
78718;SDS011;68046;53.334;9.538;2023-08-30T12:53:43;11.77;;;6.00;;
78718;SDS011;68046;53.334;9.538;2023-08-30T12:56:13;12.05;;;6.50;;
78718;SDS011;68046;53.334;9.538;2023-08-30T12:58:42;13.88;;;6.57;;
78718;SDS011;68046;53.334;9.538;2023-08-30T13:01:12;11.75;;;7.53;;
78718;SDS011;68046;53.334;9.538;2023-08-30T13:03:42;12.07;;;6.63;;
78718;SDS011;68046;53.334;9.538;2023-08-30T13:06:15;11.30;;;7.40;;
78718;SDS011;68046;53.334;9.538;2023-08-30T13:08:45;7.65;;;5.60;;
78718;SDS011;68046;53.334;9.538;2023-08-30T13:11:15;15.80;;;6.18;;
78718;SDS011;68046;53.334;9.538;2023-08-30T13:13:44;11.63;;;6.65;;
78718;SDS011;68046;53.334;9.538;2023-08-30T13:16:14;12.10;;;6.47;;
78718;SDS011;68046;53.334;9.538;2023-08-30T13:18:44;9.57;;;5.22;;
78718;SDS011;68046;53.334;9.538;2023-08-30T13:21:17;10.63;;;6.22;;
78718;SDS011;68046;53.334;9.538;2023-08-30T13:24:05;8.40;;;6.18;;
78718;SDS011;68046;53.334;9.538;2023-08-30T13:26:35;7.80;;;5.10;;
78718;SDS011;68046;53.334;9.538;2023-08-30T13:29:05;9.30;;;6.10;;
78718;SDS011;68046;53.334;9.538;2023-08-30T13:34:05;9.73;;;5.80;;
78718;SDS011;68046;53.334;9.538;2023-08-30T13:36:38;9.73;;;6.40;;
78718;SDS011;68046;53.334;9.538;2023-08-30T13:39:08;9.68;;;6.40;;
78718;SDS011;68046;53.334;9.538;2023-08-30T13:41:38;15.18;;;5.90;;
78718;SDS011;68046;53.334;9.538;2023-08-30T13:44:08;11.20;;;5.88;;
78718;SDS011;68046;53.334;9.538;2023-08-30T13:46:38;9.80;;;5.72;;
78718;SDS011;68046;53.334;9.538;2023-08-30T13:49:09;8.50;;;5.30;;
78718;SDS011;68046;53.334;9.538;2023-08-30T13:51:42;13.50;;;6.00;;
78718;SDS011;68046;53.334;9.538;2023-08-30T13:54:11;14.07;;;6.95;;
78718;SDS011;68046;53.334;9.538;2023-08-30T13:56:41;9.48;;;5.90;;
78718;SDS011;68046;53.334;9.538;2023-08-30T13:59:11;11.50;;;5.22;;
78718;SDS011;68046;53.334;9.538;2023-08-30T14:01:41;9.23;;;6.32;;
78718;SDS011;68046;53.334;9.538;2023-08-30T14:04:11;10.75;;;5.95;;
78718;SDS011;68046;53.334;9.538;2023-08-30T14:06:43;10.57;;;6.43;;
78718;SDS011;68046;53.334;9.538;2023-08-30T14:09:13;7.43;;;5.30;;
78718;SDS011;68046;53.334;9.538;2023-08-30T14:11:43;8.35;;;5.45;;
78718;SDS011;68046;53.334;9.538;2023-08-30T14:14:11;10.23;;;6.25;;
78718;SDS011;68046;53.334;9.538;2023-08-30T14:16:41;8.13;;;4.90;;
78718;SDS011;68046;53.334;9.538;2023-08-30T14:19:11;10.02;;;5.03;;
78718;SDS011;68046;53.334;9.538;2023-08-30T14:21:40;10.75;;;5.80;;
78718;SDS011;68046;53.334;9.538;2023-08-30T14:24:13;14.98;;;5.75;;
78718;SDS011;68046;53.334;9.538;2023-08-30T14:26:43;10.65;;;5.95;;
78718;SDS011;68046;53.334;9.538;2023-08-30T14:29:13;7.22;;;5.43;;
78718;SDS011;68046;53.334;9.538;2023-08-30T14:31:43;8.57;;;5.63;;
78718;SDS011;68046;53.334;9.538;2023-08-30T14:34:13;10.75;;;5.90;;
78718;SDS011;68046;53.334;9.538;2023-08-30T14:36:46;10.10;;;6.55;;
78718;SDS011;68046;53.334;9.538;2023-08-30T14:39:16;12.27;;;6.30;;
78718;SDS011;68046;53.334;9.538;2023-08-30T14:41:46;10.75;;;6.93;;
78718;SDS011;68046;53.334;9.538;2023-08-30T14:44:16;9.75;;;4.95;;
78718;SDS011;68046;53.334;9.538;2023-08-30T14:46:46;9.43;;;5.50;;
78718;SDS011;68046;53.334;9.538;2023-08-30T14:49:16;10.13;;;6.10;;
78718;SDS011;68046;53.334;9.538;2023-08-30T14:51:49;9.88;;;6.70;;
78718;SDS011;68046;53.334;9.538;2023-08-30T14:54:19;14.35;;;6.82;;
78718;SDS011;68046;53.334;9.538;2023-08-30T14:56:50;11.13;;;6.80;;
78718;SDS011;68046;53.334;9.538;2023-08-30T15:01:50;8.20;;;5.38;;
78718;SDS011;68046;53.334;9.538;2023-08-30T15:06:55;14.10;;;6.60;;
78718;SDS011;68046;53.334;9.538;2023-08-30T15:09:25;9.98;;;6.40;;
78718;SDS011;68046;53.334;9.538;2023-08-30T15:11:55;12.85;;;6.47;;
78718;SDS011;68046;53.334;9.538;2023-08-30T15:14:25;10.23;;;6.18;;
78718;SDS011;68046;53.334;9.538;2023-08-30T15:19:26;12.82;;;6.82;;
78718;SDS011;68046;53.334;9.538;2023-08-30T15:21:58;16.05;;;7.80;;
78718;SDS011;68046;53.334;9.538;2023-08-30T15:24:29;11.90;;;7.35;;
78718;SDS011;68046;53.334;9.538;2023-08-30T15:26:59;12.57;;;7.75;;
78718;SDS011;68046;53.334;9.538;2023-08-30T15:29:29;12.98;;;6.53;;
78718;SDS011;68046;53.334;9.538;2023-08-30T15:34:29;17.63;;;7.95;;
78718;SDS011;68046;53.334;9.538;2023-08-30T15:37:02;12.40;;;6.22;;
78718;SDS011;68046;53.334;9.538;2023-08-30T15:39:32;12.68;;;7.80;;